Time;durP1;ratioP1;P1;durP2;ratioP2;P2;SDS_P1;SDS_P2;PMS_P1;PMS_P2;Temp;Humidity;BMP_temperature;BMP_pressure;BME280_temperature;BME280_humidity;BME280_pressure;Samples;Min_cycle;Max_cycle;Signal;HPM_P1;HPM_P2
2021/10/13 00:02:14;;;;;;;9.18;3.28;;;;;;;6.24;91.79;102361.97;5113004;28;20460;-36
2021/10/13 00:04:40;;;;;;;9.55;3.30;;;;;;;6.06;91.43;102338.78;5112957;28;20024;-36
2021/10/13 00:07:05;;;;;;;10.43;3.60;;;;;;;6.30;92.12;102355.97;5113927;28;20028;-36
2021/10/13 00:09:30;;;;;;;9.97;3.20;;;;;;;6.24;92.13;102341.31;5112504;28;20026;-36
2021/10/13 00:11:56;;;;;;;10.57;2.90;;;;;;;6.13;91.32;102338.97;5116252;28;20043;-36
2021/10/13 00:14:22;;;;;;;10.30;3.33;;;;;;;6.25;91.08;102347.56;5116592;28;20066;-36
2021/10/13 00:17:03;;;;;;;;;;;;;;;6.35;90.78;102357.13;5117770;28;20257;-36
2021/10/13 00:19:29;;;;;;;9.02;3.10;;;;;;;6.25;91.98;102353.78;5116421;28;20364;-36
2021/10/13 00:21:54;;;;;;;7.88;3.30;;;;;;;6.21;92.15;102336.31;5116642;28;20080;-36
2021/10/13 00:24:20;;;;;;;6.33;3.83;;;;;;;6.22;91.90;102351.41;5116271;28;20028;-36
2021/10/13 00:26:45;;;;;;;7.07;3.03;;;;;;;6.14;91.20;102348.69;5116945;28;20022;-36
2021/10/13 00:29:11;;;;;;;9.60;3.23;;;;;;;6.12;91.95;102364.97;5116629;28;20505;-36
2021/10/13 00:31:36;;;;;;;8.50;3.23;;;;;;;6.07;92.04;102358.44;5115941;28;20258;-36
2021/10/13 00:34:01;;;;;;;6.03;3.00;;;;;;;6.16;92.46;102362.81;5116057;28;20023;-36
2021/10/13 00:36:27;;;;;;;9.03;3.27;;;;;;;6.07;91.43;102358.44;5116057;28;20020;-36
2021/10/13 00:38:52;;;;;;;11.37;3.00;;;;;;;6.02;90.80;102374.19;5116279;28;20027;-36
2021/10/13 00:41:17;;;;;;;7.87;3.30;;;;;;;6.07;91.98;102371.84;5116135;28;20019;-36
2021/10/13 00:43:43;;;;;;;9.80;2.53;;;;;;;5.91;91.60;102351.16;5116478;28;20019;-36
2021/10/13 00:46:09;;;;;;;8.73;2.83;;;;;;;5.84;91.86;102342.88;5116426;28;20019;-36
2021/10/13 00:48:34;;;;;;;8.30;2.97;;;;;;;5.82;90.44;102355.63;5115746;28;20352;-36
2021/10/13 00:50:59;;;;;;;6.17;2.70;;;;;;;5.68;90.12;102340.16;5116184;28;20073;-36
2021/10/13 00:53:25;;;;;;;9.60;3.70;;;;;;;5.80;91.79;102349.56;5115366;28;20390;-36
2021/10/13 00:55:52;;;;;;;10.80;2.78;;;;;;;5.83;91.57;102348.44;5115928;28;20023;-36
2021/10/13 00:58:18;;;;;;;5.68;2.60;;;;;;;5.68;88.11;102345.53;5115619;28;20528;-35
2021/10/13 01:00:46;;;;;;;13.43;3.15;;;;;;;5.56;91.24;102328.03;5115911;28;20024;-35
2021/10/13 01:03:35;;;;;;;7.40;3.17;;;;;;;5.66;91.99;102358.25;5115785;28;20028;-36
2021/10/13 01:06:03;;;;;;;8.95;2.83;;;;;;;5.73;92.38;102359.28;5013187;28;20042;-36
2021/10/13 01:08:56;;;;;;;6.32;3.10;;;;;;;5.72;92.95;102368.38;5012927;28;20180;-36
2021/10/13 01:11:55;;;;;;;9.85;3.00;;;;;;;5.77;93.35;102371.41;5013121;28;20422;-36
2021/10/13 01:14:53;;;;;;;4.88;2.55;;;;;;;5.80;92.93;102370.22;5012469;28;20076;-36
2021/10/13 01:17:41;;;;;;;6.50;2.58;;;;;;;5.76;93.31;102376.91;5012141;28;20069;-35
2021/10/13 01:20:06;;;;;;;;;;;;;;;5.85;92.29;102378.63;5013441;28;20061;-35
2021/10/13 01:22:52;;;;;;;7.67;2.90;;;;;;;5.72;92.31;102383.63;5011804;28;19960;-36
2021/10/13 01:25:48;;;;;;;7.78;2.65;;;;;;;5.70;92.21;102370.34;5012667;28;20030;-36
2021/10/13 01:28:23;;;;;;;9.13;2.60;;;;;;;5.49;92.87;102351.16;5012458;28;20030;-36
2021/10/13 01:30:58;;;;;;;6.95;3.10;;;;;;;5.47;93.18;102347.78;5012547;28;20121;-36
2021/10/13 01:33:28;;;;;;;9.57;2.63;;;;;;;5.58;93.09;102371.66;5012406;28;20152;-36
2021/10/13 01:36:01;;;;;;;4.38;2.47;;;;;;;5.59;93.80;102378.69;5012414;28;20034;-36
2021/10/13 01:38:31;;;;;;;5.93;2.58;;;;;;;5.43;92.16;102353.47;5012552;28;20104;-35
2021/10/13 01:41:00;;;;;;;9.02;3.10;;;;;;;5.36;92.62;102356.94;5012023;28;20025;-35
2021/10/13 01:43:26;;;;;;;5.75;3.08;;;;;;;5.41;92.21;102368.03;5081430;28;20073;-35
2021/10/13 01:45:52;;;;;;;;;;;;;;;5.56;91.47;102377.19;5097680;28;20435;-35
2021/10/13 01:48:19;;;;;;;6.97;2.38;;;;;;;5.35;91.32;102377.56;5115225;28;19943;-35
2021/10/13 01:50:46;;;;;;;;;;;;;;;5.48;91.31;102382.50;5114929;28;20023;-36
2021/10/13 01:53:14;;;;;;;11.23;2.72;;;;;;;5.39;92.61;102386.13;5115010;28;19931;-36
2021/10/13 01:55:41;;;;;;;7.05;2.70;;;;;;;5.37;92.72;102390.84;5114802;28;20093;-35
2021/10/13 01:58:07;;;;;;;8.57;2.90;;;;;;;5.29;92.33;102388.09;5114504;28;20429;-35
2021/10/13 02:00:32;;;;;;;;;;;;;;;5.45;91.72;102388.19;5115330;28;20478;-35
2021/10/13 02:03:00;;;;;;;9.05;2.97;;;;;;;5.19;91.73;102388.19;5114629;28;19904;-35
2021/10/13 02:05:26;;;;;;;7.53;2.75;;;;;;;5.12;92.62;102371.91;5114573;28;20020;-35
2021/10/13 02:07:54;;;;;;;7.70;3.10;;;;;;;5.17;93.39;102379.47;5114444;28;20024;-35
2021/10/13 02:10:21;;;;;;;5.75;2.42;;;;;;;5.18;93.86;102381.16;5113855;28;20023;-35
2021/10/13 02:12:47;;;;;;;7.38;2.65;;;;;;;5.04;93.91;102357.59;5114870;28;20074;-35
2021/10/13 02:15:15;;;;;;;8.30;2.75;;;;;;;5.25;94.46;102382.19;5114097;28;20091;-35
2021/10/13 02:17:47;;;;;;;5.88;2.75;;;;;;;5.29;94.88;102388.94;5114691;28;20491;-35
2021/10/13 02:20:14;;;;;;;7.47;2.80;;;;;;;5.29;93.76;102394.31;5113943;28;20020;-35
2021/10/13 02:22:43;;;;;;;6.40;2.75;;;;;;;5.24;94.56;102404.66;5114046;28;20015;-35
2021/10/13 02:25:09;;;;;;;8.60;3.13;;;;;;;5.26;94.65;102401.81;5113671;28;20019;-35
2021/10/13 02:27:54;;;;;;;8.15;2.70;;;;;;;5.29;95.00;102406.88;5114356;28;20068;-36
2021/10/13 02:30:19;;;;;;;5.78;2.72;;;;;;;5.11;94.02;102406.91;5114406;28;20411;-36
2021/10/13 02:32:45;;;;;;;7.77;3.10;;;;;;;5.08;92.88;102409.94;5113520;28;20062;-35
2021/10/13 02:35:11;;;;;;;10.45;2.72;;;;;;;5.13;93.16;102400.41;5114295;28;20435;-36
2021/10/13 02:37:36;;;;;;;4.85;2.42;;;;;;;5.18;95.05;102402.63;5113818;28;20031;-35
2021/10/13 02:40:04;;;;;;;10.63;2.97;;;;;;;5.13;95.06;102404.94;5113504;28;20016;-36
2021/10/13 02:42:31;;;;;;;9.90;3.42;;;;;;;5.18;95.50;102402.63;5113909;28;20027;-36
2021/10/13 02:44:57;;;;;;;7.07;2.85;;;;;;;5.29;96.31;102404.19;5113615;28;20020;-35
2021/10/13 02:47:43;;;;;;;7.07;3.07;;;;;;;5.21;94.66;102401.44;5114057;28;20107;-36
2021/10/13 02:50:33;;;;;;;7.10;2.47;;;;;;;5.07;93.66;102400.19;5114227;28;20019;-35
2021/10/13 02:53:20;;;;;;;11.00;3.88;;;;;;;5.04;94.91;102401.34;5114094;28;20046;-36
2021/10/13 02:56:13;;;;;;;7.07;2.33;;;;;;;5.01;94.97;102390.09;5113695;28;20015;-35
2021/10/13 02:58:41;;;;;;;6.45;2.92;;;;;;;4.87;93.24;102388.81;5011446;28;20038;-36
2021/10/13 03:01:12;;;;;;;9.65;3.05;;;;;;;4.86;95.69;102377.25;5010982;28;20042;-35
2021/10/13 03:03:51;;;;;;;4.63;2.80;;;;;;;4.76;94.77;102365.78;5010897;28;20038;-35
2021/10/13 03:06:18;;;;;;;6.07;3.08;;;;;;;4.93;94.86;102403.41;5010763;28;20055;-35
2021/10/13 03:08:47;;;;;;;7.00;2.70;;;;;;;4.95;95.70;102396.06;5010669;28;20034;-35
2021/10/13 03:11:16;;;;;;;6.85;2.95;;;;;;;5.00;95.79;102399.13;5010671;28;20057;-36
2021/10/13 03:13:44;;;;;;;8.45;3.70;;;;;;;4.89;95.88;102381.47;5010613;28;20592;-36
2021/10/13 03:16:11;;;;;;;7.20;2.90;;;;;;;4.85;94.43;102404.22;5010707;28;20088;-35
2021/10/13 03:18:40;;;;;;;7.65;2.83;;;;;;;4.95;95.31;102412.16;4994285;28;20052;-36
2021/10/13 03:21:06;;;;;;;7.18;2.80;;;;;;;4.82;94.28;102405.34;5010962;28;20362;-35
2021/10/13 03:23:32;;;;;;;5.15;2.72;;;;;;;4.89;95.40;102409.09;5010763;28;20117;-36
2021/10/13 03:26:09;;;;;;;10.00;2.78;;;;;;;4.94;95.51;102414.00;5010500;28;20513;-36
2021/10/13 03:28:36;;;;;;;7.32;2.55;;;;;;;4.90;94.87;102421.50;5010962;28;20096;-36
2021/10/13 03:31:02;;;;;;;6.80;3.00;;;;;;;5.01;95.88;102423.09;5010401;28;20104;-36
2021/10/13 03:33:27;;;;;;;12.05;3.20;;;;;;;5.04;96.12;102430.00;5010886;28;20109;-36
2021/10/13 03:35:53;;;;;;;6.97;3.00;;;;;;;5.04;96.58;102432.69;5076307;28;20493;-35
2021/10/13 03:38:19;;;;;;;8.02;2.92;;;;;;;5.01;96.45;102417.72;5113052;28;20111;-36
2021/10/13 03:40:44;;;;;;;7.70;2.80;;;;;;;5.05;96.02;102432.50;5112928;28;20103;-36
2021/10/13 03:43:09;;;;;;;5.00;3.03;;;;;;;5.07;95.93;102440.41;5113203;28;20026;-36
2021/10/13 03:45:35;;;;;;;7.50;2.57;;;;;;;5.09;97.33;102438.41;5113751;28;20016;-36
2021/10/13 03:48:01;;;;;;;9.00;2.90;;;;;;;5.00;96.47;102421.41;5117159;28;20031;-36
2021/10/13 03:50:26;;;;;;;7.25;2.70;;;;;;;5.07;96.55;102440.41;5116506;28;20073;-35
2021/10/13 03:52:52;;;;;;;6.87;3.17;;;;;;;4.90;95.54;102426.88;5116538;28;20023;-35
2021/10/13 03:55:19;;;;;;;5.73;2.23;;;;;;;4.96;96.79;102422.72;5116806;28;20367;-35
2021/10/13 03:57:44;;;;;;;6.30;2.60;;;;;;;5.05;96.69;102445.09;5116538;28;20028;-36
2021/10/13 04:00:13;;;;;;;9.43;2.83;;;;;;;5.07;97.14;102438.56;5098701;28;20130;-36
2021/10/13 04:02:38;;;;;;;5.20;2.53;;;;;;;5.07;97.11;102443.06;5116969;28;20380;-35
2021/10/13 04:05:06;;;;;;;10.13;3.03;;;;;;;5.11;96.61;102439.09;5116602;28;20024;-36
2021/10/13 04:07:34;;;;;;;6.00;2.55;;;;;;;5.12;97.54;102419.31;5116831;28;20103;-35
2021/10/13 04:10:00;;;;;;;9.80;2.92;;;;;;;4.99;97.29;102416.22;5116486;28;20020;-35
2021/10/13 04:12:26;;;;;;;6.93;2.92;;;;;;;5.22;97.48;102446.91;5116187;28;20071;-36
2021/10/13 04:14:52;;;;;;;7.22;3.50;;;;;;;5.32;97.41;102447.66;5115998;28;20058;-36
2021/10/13 04:17:18;;;;;;;7.27;3.37;;;;;;;5.39;98.21;102448.69;5117080;28;20024;-36
2021/10/13 04:19:43;;;;;;;;;;;;;;;5.46;97.93;102448.03;5116404;28;20383;-36
2021/10/13 04:22:08;;;;;;;5.72;2.55;;;;;;;5.46;98.10;102454.25;5116801;28;19903;-36
2021/10/13 04:24:34;;;;;;;7.27;3.20;;;;;;;5.45;97.97;102449.06;5116434;28;20023;-36
2021/10/13 04:26:59;;;;;;;8.97;3.13;;;;;;;5.35;96.82;102444.63;5116233;28;20051;-36
2021/10/13 04:29:25;;;;;;;8.20;3.00;;;;;;;5.23;95.53;102455.78;5097924;28;20477;-35
2021/10/13 04:31:50;;;;;;;6.33;3.10;;;;;;;5.26;96.52;102431.31;5116485;28;20020;-35
2021/10/13 04:34:15;;;;;;;9.47;2.60;;;;;;;5.32;97.37;102457.50;5116039;28;20065;-36
2021/10/13 04:36:40;;;;;;;6.13;3.10;;;;;;;5.30;97.77;102462.19;5115692;28;20024;-36
2021/10/13 04:39:06;;;;;;;9.20;3.57;;;;;;;5.37;97.93;102456.06;5116589;28;20019;-35
2021/10/13 04:41:33;;;;;;;7.10;3.17;;;;;;;5.23;97.91;102437.00;5115864;28;20055;-36
2021/10/13 04:43:58;;;;;;;6.35;2.70;;;;;;;5.38;97.78;102451.53;5115796;28;20101;-35
2021/10/13 04:46:24;;;;;;;7.28;2.63;;;;;;;5.45;98.60;102451.72;5116039;28;20143;-36
2021/10/13 04:48:49;;;;;;;5.57;2.73;;;;;;;5.20;96.97;102443.53;5115759;28;20051;-36
2021/10/13 04:51:14;;;;;;;7.07;3.20;;;;;;;5.42;98.42;102452.91;5115988;28;20023;-36
2021/10/13 04:53:40;;;;;;;7.77;3.67;;;;;;;5.27;98.03;102444.59;5115472;28;20034;-36
2021/10/13 04:56:05;;;;;;;6.80;3.17;;;;;;;5.29;96.89;102464.03;5115368;28;20468;-36
2021/10/13 04:58:30;;;;;;;6.73;3.07;;;;;;;5.47;98.04;102465.84;5115392;28;20102;-35
2021/10/13 05:00:56;;;;;;;5.87;3.20;;;;;;;5.52;98.73;102469.75;5115383;28;20022;-36
2021/10/13 05:03:21;;;;;;;6.80;3.77;;;;;;;5.43;98.37;102465.31;5097455;28;20072;-35
2021/10/13 05:05:46;;;;;;;6.37;2.97;;;;;;;5.38;98.16;102465.78;5115603;28;20405;-35
2021/10/13 05:08:12;;;;;;;4.90;2.75;;;;;;;5.37;99.06;102455.22;5115551;28;20070;-36
2021/10/13 05:10:38;;;;;;;8.50;3.63;;;;;;;5.49;99.27;102474.56;5115352;28;20357;-36
2021/10/13 05:13:04;;;;;;;5.80;3.42;;;;;;;5.43;99.10;102471.53;5115212;28;20304;-36
2021/10/13 05:15:29;;;;;;;7.93;3.38;;;;;;;5.49;98.76;102474.56;5115951;28;20077;-36
2021/10/13 05:17:55;;;;;;;8.87;3.67;;;;;;;5.56;99.48;102468.44;5114957;28;20090;-36
2021/10/13 05:20:20;;;;;;;7.03;3.60;;;;;;;5.59;99.98;102470.78;5115341;28;20102;-36
2021/10/13 05:22:45;;;;;;;7.23;3.70;;;;;;;5.59;100.00;102456.53;5115585;28;20027;-36
2021/10/13 05:25:11;;;;;;;8.67;3.57;;;;;;;5.67;99.60;102478.06;5115130;28;20031;-36
2021/10/13 05:27:36;;;;;;;5.53;3.80;;;;;;;5.73;99.44;102471.19;5114758;28;20073;-36
2021/10/13 05:30:03;;;;;;;8.53;3.67;;;;;;;5.74;99.85;102471.03;5115195;28;20077;-36
2021/10/13 05:32:29;;;;;;;8.48;3.97;;;;;;;5.65;98.79;102477.34;5115818;28;20015;-35
2021/10/13 05:34:54;;;;;;;8.27;3.30;;;;;;;5.60;97.78;102474.28;5115219;28;20320;-36
2021/10/13 05:37:19;;;;;;;13.43;3.87;;;;;;;5.75;99.66;102475.38;5115089;28;20019;-36
2021/10/13 05:39:44;;;;;;;6.20;3.47;;;;;;;5.74;99.38;102468.34;5115423;28;20051;-35
2021/10/13 05:42:10;;;;;;;7.03;3.37;;;;;;;5.96;100.00;102476.91;5114998;28;20094;-35
2021/10/13 05:44:35;;;;;;;9.27;3.80;;;;;;;5.82;100.00;102470.25;5114963;28;20155;-35
2021/10/13 05:47:00;;;;;;;7.80;3.50;;;;;;;5.94;100.00;102485.94;5114980;28;20035;-35
2021/10/13 05:49:26;;;;;;;5.53;3.47;;;;;;;6.00;100.00;102484.44;5114336;28;20016;-36
2021/10/13 05:51:51;;;;;;;7.23;3.53;;;;;;;6.03;100.00;102489.50;5114790;28;20074;-35
2021/10/13 05:54:17;;;;;;;5.53;3.60;;;;;;;6.05;100.00;102489.31;5114108;28;20027;-36
2021/10/13 05:56:42;;;;;;;8.27;3.93;;;;;;;6.10;100.00;102489.69;5114932;28;20027;-36
2021/10/13 05:59:08;;;;;;;9.77;4.32;;;;;;;6.02;100.00;102481.63;5114549;28;20026;-36
2021/10/13 06:01:33;;;;;;;5.60;3.27;;;;;;;6.18;100.00;102497.78;5114561;28;20030;-36
2021/10/13 06:03:59;;;;;;;7.45;3.78;;;;;;;6.17;100.00;102496.09;5114351;28;20055;-36
2021/10/13 06:06:24;;;;;;;6.33;3.70;;;;;;;6.22;100.00;102503.69;5114271;28;20015;-36
2021/10/13 06:08:49;;;;;;;8.20;3.73;;;;;;;6.18;100.00;102497.78;5113617;28;20061;-36
2021/10/13 06:11:16;;;;;;;5.83;3.80;;;;;;;6.19;100.00;102507.53;5114062;28;20023;-36
2021/10/13 06:13:42;;;;;;;8.18;4.18;;;;;;;6.21;100.00;102518.97;5114763;28;20040;-36
2021/10/13 06:16:09;;;;;;;6.20;4.15;;;;;;;6.22;100.00;102509.91;5114049;28;20030;-35
2021/10/13 06:18:35;;;;;;;7.30;3.65;;;;;;;6.33;100.00;102520.34;5113918;28;20031;-35
2021/10/13 06:21:00;;;;;;;7.20;3.43;;;;;;;6.35;100.00;102530.94;5114044;28;20031;-36
2021/10/13 06:23:25;;;;;;;9.57;3.60;;;;;;;6.29;100.00;102521.66;5113645;28;20084;-36
2021/10/13 06:25:51;;;;;;;6.20;3.80;;;;;;;6.27;100.00;102512.09;5113938;28;20253;-36
2021/10/13 06:28:16;;;;;;;8.53;4.33;;;;;;;6.31;100.00;102514.31;5114066;28;20016;-36
2021/10/13 06:30:42;;;;;;;12.17;4.60;;;;;;;6.46;100.00;102522.59;5113978;28;20439;-36
2021/10/13 06:33:07;;;;;;;7.45;4.10;;;;;;;6.53;100.00;102528.97;5113683;28;20019;-36
2021/10/13 06:35:33;;;;;;;5.67;3.70;;;;;;;6.51;100.00;102519.41;5114159;28;20077;-36
2021/10/13 06:37:58;;;;;;;7.37;3.50;;;;;;;6.63;100.00;102527.00;5114050;28;20253;-36
2021/10/13 06:40:24;;;;;;;8.25;4.47;;;;;;;6.69;100.00;102537.09;5114401;28;20079;-36
2021/10/13 06:42:49;;;;;;;8.50;3.67;;;;;;;6.53;100.00;102509.31;5113902;28;20078;-36
2021/10/13 06:45:15;;;;;;;9.53;3.47;;;;;;;6.81;100.00;102526.88;5113314;28;20098;-36
2021/10/13 06:47:40;;;;;;;10.60;4.22;;;;;;;6.91;100.00;102532.09;5114310;28;20047;-36
2021/10/13 06:50:07;;;;;;;13.03;4.13;;;;;;;6.94;100.00;102538.00;5113931;28;20038;-36
2021/10/13 06:52:33;;;;;;;9.40;4.53;;;;;;;7.00;100.00;102541.03;5113815;28;20712;-36
2021/10/13 06:54:58;;;;;;;7.95;4.35;;;;;;;7.06;100.00;102546.56;5113558;28;20026;-36
2021/10/13 06:57:24;;;;;;;7.03;3.73;;;;;;;7.18;100.00;102539.03;5113950;28;20023;-36
2021/10/13 06:59:49;;;;;;;8.75;3.90;;;;;;;7.16;100.00;102539.19;5113387;28;20023;-36
2021/10/13 07:02:15;;;;;;;9.97;5.00;;;;;;;7.13;100.00;102525.25;5114225;28;20042;-36
2021/10/13 07:04:41;;;;;;;10.47;4.90;;;;;;;7.26;100.00;102551.63;5113363;28;20059;-36
2021/10/13 07:07:06;;;;;;;13.40;4.78;;;;;;;7.20;100.00;102534.31;5113323;28;20016;-36
2021/10/13 07:09:32;;;;;;;12.75;5.30;;;;;;;7.36;100.00;102550.47;5113574;28;20036;-36
2021/10/13 07:11:58;;;;;;;10.65;4.65;;;;;;;7.41;100.00;102555.34;5113435;28;20076;-36
2021/10/13 07:14:23;;;;;;;10.80;4.23;;;;;;;7.29;100.00;102536.00;5113259;28;20023;-36
2021/10/13 07:16:48;;;;;;;8.37;4.43;;;;;;;7.48;100.00;102554.50;5113348;28;20016;-36
2021/10/13 07:19:13;;;;;;;15.03;4.67;;;;;;;7.45;100.00;102546.75;5112899;28;20023;-36
2021/10/13 07:21:39;;;;;;;11.17;4.63;;;;;;;7.60;100.00;102562.22;5115819;28;20030;-36
2021/10/13 07:24:04;;;;;;;10.10;4.32;;;;;;;7.58;100.00;102558.88;5117813;28;20026;-36
2021/10/13 07:26:33;;;;;;;10.13;4.47;;;;;;;7.61;100.00;102550.44;5117545;28;20020;-36
2021/10/13 07:28:58;;;;;;;13.98;4.60;;;;;;;7.77;100.00;102571.16;5117398;28;20455;-36
2021/10/13 07:31:24;;;;;;;9.30;3.77;;;;;;;7.81;100.00;102567.09;5117763;28;20016;-36
2021/10/13 07:33:49;;;;;;;13.63;4.40;;;;;;;7.85;100.00;102571.97;5117548;28;20023;-36
2021/10/13 07:36:14;;;;;;;10.43;4.10;;;;;;;7.95;100.00;102569.94;5118198;28;20031;-36
2021/10/13 07:38:41;;;;;;;5.78;3.78;;;;;;;8.01;100.00;102568.41;5117005;28;20077;-36
2021/10/13 07:41:07;;;;;;;9.52;4.35;;;;;;;8.05;100.00;102558.13;5117378;28;20316;-36
2021/10/13 07:43:33;;;;;;;11.00;4.87;;;;;;;8.10;100.00;102558.44;5117120;28;20032;-36
2021/10/13 07:45:59;;;;;;;9.95;3.40;;;;;;;8.16;100.00;102560.47;5117383;28;20015;-36
2021/10/13 07:48:25;;;;;;;13.90;3.80;;;;;;;8.17;100.00;102564.84;5117640;28;20045;-36
2021/10/13 07:50:51;;;;;;;9.05;3.83;;;;;;;8.20;100.00;102562.63;5117134;28;20341;-36
2021/10/13 07:53:17;;;;;;;8.27;4.10;;;;;;;8.12;100.00;102551.88;5117153;28;20356;-36
2021/10/13 07:55:42;;;;;;;9.52;4.10;;;;;;;8.28;100.00;102575.22;5116931;28;20028;-35
2021/10/13 07:58:08;;;;;;;6.33;4.10;;;;;;;8.35;100.00;102584.31;5116767;28;20123;-36
2021/10/13 08:00:33;;;;;;;7.00;4.27;;;;;;;8.34;100.00;102568.28;5117085;28;20463;-36
2021/10/13 08:02:59;;;;;;;6.63;3.83;;;;;;;8.37;100.00;102574.22;5117245;28;20023;-36
2021/10/13 08:05:24;;;;;;;10.97;3.77;;;;;;;8.50;100.00;102596.09;5117020;28;20024;-36
2021/10/13 08:07:49;;;;;;;7.23;4.27;;;;;;;8.54;100.00;102590.31;5117337;28;20089;-36
2021/10/13 08:10:15;;;;;;;10.77;4.40;;;;;;;8.64;100.00;102590.97;5116591;28;20081;-36
2021/10/13 08:12:41;;;;;;;9.18;4.00;;;;;;;8.66;100.00;102575.44;5117248;28;20063;-36
2021/10/13 08:15:07;;;;;;;12.63;4.40;;;;;;;8.77;100.00;102585.84;5116662;28;20077;-36
2021/10/13 08:17:32;;;;;;;11.60;4.50;;;;;;;8.80;100.00;102590.88;5116136;28;20034;-36
2021/10/13 08:19:57;;;;;;;8.67;4.10;;;;;;;8.86;100.00;102592.03;5116440;28;20023;-36
2021/10/13 08:22:23;;;;;;;8.77;4.30;;;;;;;8.91;100.00;102593.19;5116293;28;20054;-36
2021/10/13 08:24:49;;;;;;;12.35;4.88;;;;;;;8.97;100.00;102599.72;5116284;28;20027;-36
2021/10/13 08:27:15;;;;;;;9.63;4.15;;;;;;;8.99;100.00;102598.53;5116557;28;20020;-36
2021/10/13 08:29:40;;;;;;;10.00;5.03;;;;;;;9.05;100.00;102582.66;5116296;28;20089;-36
2021/10/13 08:32:06;;;;;;;8.20;4.43;;;;;;;9.08;100.00;102576.88;5115866;28;20055;-36
2021/10/13 08:34:31;;;;;;;10.40;4.65;;;;;;;9.05;100.00;102571.84;5116400;28;20106;-36
2021/10/13 08:36:57;;;;;;;10.60;4.63;;;;;;;9.13;100.00;102579.91;5116215;28;20102;-36
2021/10/13 08:39:22;;;;;;;9.73;4.37;;;;;;;9.18;100.00;102582.91;5116017;28;20266;-36
2021/10/13 08:41:48;;;;;;;13.10;4.60;;;;;;;9.26;100.00;102585.53;5116583;28;20042;-36
2021/10/13 08:44:14;;;;;;;10.43;4.83;;;;;;;9.37;100.00;102576.16;5116742;28;20352;-36
2021/10/13 08:46:40;;;;;;;9.95;4.78;;;;;;;9.63;100.00;102578.50;5116523;28;20098;-36
2021/10/13 08:49:06;;;;;;;10.35;4.80;;;;;;;9.69;100.00;102575.91;5115780;28;20375;-36
2021/10/13 08:51:35;;;;;;;11.25;4.43;;;;;;;9.73;100.00;102565.56;5115889;28;20024;-36
2021/10/13 08:54:01;;;;;;;15.38;4.90;;;;;;;9.95;100.00;102590.84;5115755;28;20019;-36
2021/10/13 08:56:27;;;;;;;10.35;4.57;;;;;;;9.94;100.00;102578.34;5116039;28;20057;-36
2021/10/13 08:58:52;;;;;;;10.18;4.50;;;;;;;10.04;100.00;102592.44;5115914;28;20023;-36
2021/10/13 09:01:17;;;;;;;12.93;5.13;;;;;;;10.06;100.00;102588.53;5116014;28;20121;-36
2021/10/13 09:03:55;;;;;;;14.37;4.27;;;;;;;10.10;100.00;102596.25;5115647;28;20424;-36
2021/10/13 09:06:29;;;;;;;10.65;3.78;;;;;;;10.16;99.61;102599.09;5116161;28;20030;-36
2021/10/13 09:09:02;;;;;;;6.70;3.78;;;;;;;10.23;99.53;102599.16;5116334;28;20023;-36
2021/10/13 09:11:48;;;;;;;9.50;4.25;;;;;;;10.34;98.99;102587.91;5115958;28;20039;-36
2021/10/13 09:14:29;;;;;;;10.90;5.10;;;;;;;10.45;98.34;102606.41;5115878;28;20043;-36
2021/10/13 09:17:04;;;;;;;8.48;3.70;;;;;;;10.53;98.08;102581.94;5115803;28;20085;-36
2021/10/13 09:19:43;;;;;;;9.50;3.90;;;;;;;10.83;97.66;102596.28;5115270;28;20023;-36
2021/10/13 09:22:14;;;;;;;10.98;3.85;;;;;;;10.92;96.14;102605.09;5115738;28;20046;-36
2021/10/13 09:24:45;;;;;;;9.88;3.70;;;;;;;10.93;96.32;102601.38;5115418;28;20055;-36
2021/10/13 09:27:24;;;;;;;7.55;4.22;;;;;;;11.04;96.04;102613.56;5115056;28;20015;-36
2021/10/13 09:29:50;;;;;;;8.40;3.42;;;;;;;10.92;94.58;102602.38;5114929;28;20019;-36
2021/10/13 09:32:22;;;;;;;8.90;3.65;;;;;;;10.82;95.04;102581.03;5115766;28;20023;-36
2021/10/13 09:34:54;;;;;;;11.55;3.35;;;;;;;11.06;95.37;102612.34;5115605;28;20024;-36
2021/10/13 09:37:20;;;;;;;10.80;3.45;;;;;;;11.13;95.35;102619.72;5115083;28;20020;-36
2021/10/13 09:40:00;;;;;;;10.48;3.20;;;;;;;11.16;94.43;102611.19;5115350;28;20032;-36
2021/10/13 09:42:26;;;;;;;8.38;2.97;;;;;;;11.14;93.68;102618.69;5114681;28;20023;-36
2021/10/13 09:44:55;;;;;;;8.63;2.80;;;;;;;11.15;93.82;102618.47;5114012;28;20028;-36
2021/10/13 09:47:28;;;;;;;7.82;2.55;;;;;;;11.16;92.75;102619.31;5114577;28;20478;-36
2021/10/13 09:49:54;;;;;;;9.70;3.10;;;;;;;11.21;92.74;102609.59;5114845;28;20019;-36
2021/10/13 09:52:26;;;;;;;6.10;2.47;;;;;;;11.39;94.31;102611.88;5115605;28;20107;-36
2021/10/13 09:54:58;;;;;;;8.48;2.47;;;;;;;11.50;93.16;102618.63;5115307;28;20047;-36
2021/10/13 09:57:27;;;;;;;8.70;2.75;;;;;;;11.52;91.22;102617.41;5114710;28;20359;-36
2021/10/13 09:59:55;;;;;;;7.80;3.05;;;;;;;11.39;90.29;102606.44;5114692;28;20023;-36
2021/10/13 10:02:21;;;;;;;7.18;1.92;;;;;;;11.34;89.70;102606.19;5114675;28;20098;-36
2021/10/13 10:04:46;;;;;;;;;;;;;;;11.53;91.81;102631.78;5115126;28;20037;-36
2021/10/13 10:07:12;;;;;;;11.88;2.17;;;;;;;11.51;91.05;102631.97;5114928;28;19907;-36
2021/10/13 10:09:37;;;;;;;7.87;2.23;;;;;;;11.51;90.77;102621.13;5114252;28;20114;-36
2021/10/13 10:12:07;;;;;;;7.60;2.67;;;;;;;11.49;90.69;102631.34;5114891;28;20249;-36
2021/10/13 10:14:32;;;;;;;3.88;1.80;;;;;;;11.42;89.90;102633.16;5114575;28;20118;-36
2021/10/13 10:16:59;;;;;;;8.60;1.97;;;;;;;11.34;90.77;102636.81;5096985;28;20092;-36
2021/10/13 10:19:26;;;;;;;6.38;2.10;;;;;;;11.20;90.86;102629.59;5114340;28;20107;-36
2021/10/13 10:22:07;;;;;;;7.00;1.55;;;;;;;11.24;92.25;102643.59;5114433;28;20057;-36
2021/10/13 10:24:34;;;;;;;8.45;2.08;;;;;;;11.16;91.48;102649.94;5114818;28;20074;-36
2021/10/13 10:27:21;;;;;;;7.75;2.20;;;;;;;11.14;92.68;102652.00;5114795;28;20102;-36
2021/10/13 10:29:47;;;;;;;5.43;1.63;;;;;;;11.12;92.28;102647.81;5114191;28;20054;-36
2021/10/13 10:32:16;;;;;;;8.07;1.90;;;;;;;11.15;91.79;102645.56;5114462;28;20065;-36
2021/10/13 10:35:04;;;;;;;9.60;1.85;;;;;;;11.21;91.88;102647.50;5113994;28;20176;-36
2021/10/13 10:37:46;;;;;;;5.38;1.70;;;;;;;11.24;92.12;102640.88;5114034;28;20023;-36
2021/10/13 10:40:28;;;;;;;5.63;1.90;;;;;;;11.51;91.88;102659.06;5114521;28;20019;-36
2021/10/13 10:43:03;;;;;;;8.98;1.63;;;;;;;11.57;88.11;102649.34;5114743;28;20054;-36
2021/10/13 10:45:38;;;;;;;6.57;1.80;;;;;;;11.62;89.57;102652.31;5114490;28;20030;-36
2021/10/13 10:48:07;;;;;;;7.80;1.65;;;;;;;11.62;88.21;102646.06;5114671;28;20019;-36
2021/10/13 10:50:34;;;;;;;9.23;1.50;;;;;;;11.69;88.92;102636.09;5113906;28;20059;-36
2021/10/13 10:53:30;;;;;;;4.82;1.90;;;;;;;11.68;86.92;102629.00;5113765;28;20073;-36
2021/10/13 10:55:58;;;;;;;7.15;1.52;;;;;;;11.87;86.40;102643.81;5113904;28;20138;-36
2021/10/13 10:58:31;;;;;;;7.90;1.45;;;;;;;12.00;87.71;102633.06;5114060;28;20072;-36
2021/10/13 11:01:01;;;;;;;6.18;1.35;;;;;;;12.00;84.21;102642.03;5113703;28;20020;-36
2021/10/13 11:03:36;;;;;;;5.80;1.23;;;;;;;12.04;84.07;102637.88;5113993;28;20355;-36
2021/10/13 11:06:10;;;;;;;5.35;0.93;;;;;;;12.04;82.33;102626.19;5113575;28;20106;-36
2021/10/13 11:08:35;;;;;;;6.90;1.58;;;;;;;12.09;81.69;102640.84;5113612;28;20066;-36
2021/10/13 11:11:14;;;;;;;4.67;1.10;;;;;;;12.07;79.82;102632.09;5113748;28;20043;-36
2021/10/13 11:13:39;;;;;;;5.10;0.90;;;;;;;12.13;80.03;102637.75;5113508;28;20044;-36
2021/10/13 11:16:08;;;;;;;5.40;1.00;;;;;;;12.19;78.71;102637.78;5113629;28;20505;-36
2021/10/13 11:18:34;;;;;;;6.43;1.13;;;;;;;12.27;78.50;102639.50;5114028;28;20019;-36
2021/10/13 11:21:09;;;;;;;3.13;0.80;;;;;;;12.31;80.42;102629.94;5113500;28;20470;-36
2021/10/13 11:23:34;;;;;;;4.78;0.90;;;;;;;12.64;80.09;102643.72;5113780;28;20089;-36
2021/10/13 11:26:01;;;;;;;2.80;0.83;;;;;;;12.81;78.37;102641.47;5113215;28;20417;-36
2021/10/13 11:28:37;;;;;;;4.35;1.20;;;;;;;12.71;77.46;102624.72;5113491;28;20245;-36
2021/10/13 11:31:04;;;;;;;6.03;1.20;;;;;;;12.76;76.71;102630.41;5113232;28;20031;-36
2021/10/13 11:33:29;;;;;;;5.35;1.23;;;;;;;12.80;76.04;102626.25;5114110;28;20024;-36
2021/10/13 11:36:00;;;;;;;4.67;1.10;;;;;;;12.78;76.27;102634.56;5113389;28;20466;-36